sensor_id;sensor_type;location;lat;lon;timestamp;P1;durP1;ratioP1;P2;durP2;ratioP2
78426;SDS011;67722;50.204;8.570;2023-06-22T00:02:13;7.93;;;4.20;;
78426;SDS011;67722;50.204;8.570;2023-06-22T00:04:38;7.15;;;4.60;;
78426;SDS011;67722;50.204;8.570;2023-06-22T00:07:03;4.80;;;3.43;;
78426;SDS011;67722;50.204;8.570;2023-06-22T00:09:29;5.05;;;3.63;;
78426;SDS011;67722;50.204;8.570;2023-06-22T00:11:55;5.75;;;4.78;;
78426;SDS011;67722;50.204;8.570;2023-06-22T00:14:20;5.23;;;3.77;;
78426;SDS011;67722;50.204;8.570;2023-06-22T00:16:45;5.50;;;3.63;;
78426;SDS011;67722;50.204;8.570;2023-06-22T00:19:13;5.47;;;4.50;;
78426;SDS011;67722;50.204;8.570;2023-06-22T00:21:40;6.72;;;4.40;;
78426;SDS011;67722;50.204;8.570;2023-06-22T00:24:05;6.63;;;4.70;;
78426;SDS011;67722;50.204;8.570;2023-06-22T00:26:31;5.22;;;4.25;;
78426;SDS011;67722;50.204;8.570;2023-06-22T00:28:56;6.07;;;4.05;;
78426;SDS011;67722;50.204;8.570;2023-06-22T00:31:21;7.43;;;4.03;;
78426;SDS011;67722;50.204;8.570;2023-06-22T00:33:47;5.88;;;3.78;;
78426;SDS011;67722;50.204;8.570;2023-06-22T00:36:12;5.75;;;4.05;;
78426;SDS011;67722;50.204;8.570;2023-06-22T00:38:41;6.35;;;4.05;;
78426;SDS011;67722;50.204;8.570;2023-06-22T00:41:06;6.47;;;4.90;;
78426;SDS011;67722;50.204;8.570;2023-06-22T00:43:32;6.18;;;3.67;;
78426;SDS011;67722;50.204;8.570;2023-06-22T00:45:57;6.05;;;4.68;;
78426;SDS011;67722;50.204;8.570;2023-06-22T00:48:23;5.32;;;4.03;;
78426;SDS011;67722;50.204;8.570;2023-06-22T00:50:48;4.78;;;4.00;;
78426;SDS011;67722;50.204;8.570;2023-06-22T00:53:16;8.40;;;4.88;;
78426;SDS011;67722;50.204;8.570;2023-06-22T00:55:43;5.88;;;3.85;;
78426;SDS011;67722;50.204;8.570;2023-06-22T00:58:10;5.65;;;4.10;;
78426;SDS011;67722;50.204;8.570;2023-06-22T01:00:36;5.68;;;4.15;;
78426;SDS011;67722;50.204;8.570;2023-06-22T01:03:02;4.88;;;3.92;;
78426;SDS011;67722;50.204;8.570;2023-06-22T01:05:28;5.20;;;3.83;;
78426;SDS011;67722;50.204;8.570;2023-06-22T01:10:27;7.00;;;4.70;;
78426;SDS011;67722;50.204;8.570;2023-06-22T01:12:55;5.53;;;4.38;;
78426;SDS011;67722;50.204;8.570;2023-06-22T01:15:30;5.63;;;4.35;;
78426;SDS011;67722;50.204;8.570;2023-06-22T01:17:58;7.53;;;5.32;;
78426;SDS011;67722;50.204;8.570;2023-06-22T01:20:24;6.25;;;4.53;;
78426;SDS011;67722;50.204;8.570;2023-06-22T01:25:47;7.63;;;5.15;;
78426;SDS011;67722;50.204;8.570;2023-06-22T01:31:02;7.40;;;5.03;;
78426;SDS011;67722;50.204;8.570;2023-06-22T01:33:35;7.07;;;5.18;;
78426;SDS011;67722;50.204;8.570;2023-06-22T01:36:04;7.28;;;6.53;;
78426;SDS011;67722;50.204;8.570;2023-06-22T01:38:30;8.30;;;5.78;;
78426;SDS011;67722;50.204;8.570;2023-06-22T01:40:56;8.18;;;5.90;;
78426;SDS011;67722;50.204;8.570;2023-06-22T01:43:22;8.95;;;6.38;;
78426;SDS011;67722;50.204;8.570;2023-06-22T01:45:49;9.30;;;5.90;;
78426;SDS011;67722;50.204;8.570;2023-06-22T01:48:15;7.68;;;6.13;;
78426;SDS011;67722;50.204;8.570;2023-06-22T01:50:42;7.23;;;5.80;;
78426;SDS011;67722;50.204;8.570;2023-06-22T01:53:08;9.65;;;6.72;;
78426;SDS011;67722;50.204;8.570;2023-06-22T01:55:33;9.13;;;6.73;;
78426;SDS011;67722;50.204;8.570;2023-06-22T01:57:58;8.87;;;6.67;;
78426;SDS011;67722;50.204;8.570;2023-06-22T02:00:24;9.37;;;6.43;;
78426;SDS011;67722;50.204;8.570;2023-06-22T02:02:59;10.63;;;6.88;;
78426;SDS011;67722;50.204;8.570;2023-06-22T02:05:26;8.35;;;6.00;;
78426;SDS011;67722;50.204;8.570;2023-06-22T02:08:17;7.68;;;6.43;;
78426;SDS011;67722;50.204;8.570;2023-06-22T02:10:45;9.45;;;6.57;;
78426;SDS011;67722;50.204;8.570;2023-06-22T02:13:11;9.73;;;6.63;;
78426;SDS011;67722;50.204;8.570;2023-06-22T02:15:38;9.13;;;6.75;;
78426;SDS011;67722;50.204;8.570;2023-06-22T02:18:03;9.00;;;6.43;;
78426;SDS011;67722;50.204;8.570;2023-06-22T02:20:29;10.80;;;6.70;;
78426;SDS011;67722;50.204;8.570;2023-06-22T02:22:54;9.43;;;7.10;;
78426;SDS011;67722;50.204;8.570;2023-06-22T02:25:19;8.83;;;6.57;;
78426;SDS011;67722;50.204;8.570;2023-06-22T02:27:45;10.90;;;7.35;;
78426;SDS011;67722;50.204;8.570;2023-06-22T02:30:10;9.35;;;7.13;;
78426;SDS011;67722;50.204;8.570;2023-06-22T02:32:37;9.63;;;6.80;;
78426;SDS011;67722;50.204;8.570;2023-06-22T02:35:02;9.00;;;6.90;;
78426;SDS011;67722;50.204;8.570;2023-06-22T02:37:31;9.65;;;7.10;;
78426;SDS011;67722;50.204;8.570;2023-06-22T02:39:57;9.38;;;6.82;;
78426;SDS011;67722;50.204;8.570;2023-06-22T02:42:22;9.57;;;6.27;;
78426;SDS011;67722;50.204;8.570;2023-06-22T02:44:47;9.15;;;6.40;;
78426;SDS011;67722;50.204;8.570;2023-06-22T02:47:13;9.20;;;6.80;;
78426;SDS011;67722;50.204;8.570;2023-06-22T02:49:38;9.27;;;7.23;;
78426;SDS011;67722;50.204;8.570;2023-06-22T02:52:03;9.37;;;7.17;;
78426;SDS011;67722;50.204;8.570;2023-06-22T02:54:29;9.13;;;7.07;;
78426;SDS011;67722;50.204;8.570;2023-06-22T02:56:54;9.13;;;7.20;;
78426;SDS011;67722;50.204;8.570;2023-06-22T02:59:20;9.95;;;6.47;;
78426;SDS011;67722;50.204;8.570;2023-06-22T03:01:48;9.73;;;6.95;;
78426;SDS011;67722;50.204;8.570;2023-06-22T03:04:15;12.95;;;7.85;;
78426;SDS011;67722;50.204;8.570;2023-06-22T03:06:40;11.23;;;8.75;;
78426;SDS011;67722;50.204;8.570;2023-06-22T03:09:06;9.85;;;7.18;;
78426;SDS011;67722;50.204;8.570;2023-06-22T03:11:32;9.40;;;7.28;;
78426;SDS011;67722;50.204;8.570;2023-06-22T03:13:58;9.18;;;7.43;;
78426;SDS011;67722;50.204;8.570;2023-06-22T03:16:23;10.25;;;7.40;;
78426;SDS011;67722;50.204;8.570;2023-06-22T03:18:49;9.97;;;7.27;;
78426;SDS011;67722;50.204;8.570;2023-06-22T03:21:14;9.70;;;6.95;;
78426;SDS011;67722;50.204;8.570;2023-06-22T03:23:40;9.82;;;7.50;;
78426;SDS011;67722;50.204;8.570;2023-06-22T03:26:06;10.35;;;8.32;;
78426;SDS011;67722;50.204;8.570;2023-06-22T03:28:31;12.40;;;7.53;;
78426;SDS011;67722;50.204;8.570;2023-06-22T03:30:57;10.87;;;7.43;;
78426;SDS011;67722;50.204;8.570;2023-06-22T03:33:23;10.32;;;7.88;;
78426;SDS011;67722;50.204;8.570;2023-06-22T03:35:48;13.35;;;8.40;;
78426;SDS011;67722;50.204;8.570;2023-06-22T03:38:14;9.77;;;7.60;;
78426;SDS011;67722;50.204;8.570;2023-06-22T03:40:40;9.52;;;7.35;;
78426;SDS011;67722;50.204;8.570;2023-06-22T03:43:05;10.93;;;8.40;;
78426;SDS011;67722;50.204;8.570;2023-06-22T03:45:30;9.23;;;7.30;;
78426;SDS011;67722;50.204;8.570;2023-06-22T03:47:56;11.90;;;8.73;;
78426;SDS011;67722;50.204;8.570;2023-06-22T03:50:21;8.83;;;6.97;;
78426;SDS011;67722;50.204;8.570;2023-06-22T03:52:47;11.07;;;7.60;;
78426;SDS011;67722;50.204;8.570;2023-06-22T03:55:12;9.55;;;7.57;;
78426;SDS011;67722;50.204;8.570;2023-06-22T03:57:37;9.73;;;7.75;;
78426;SDS011;67722;50.204;8.570;2023-06-22T04:00:03;9.73;;;7.83;;
78426;SDS011;67722;50.204;8.570;2023-06-22T04:02:32;11.32;;;8.45;;
78426;SDS011;67722;50.204;8.570;2023-06-22T04:04:58;11.37;;;7.70;;
78426;SDS011;67722;50.204;8.570;2023-06-22T04:07:23;10.10;;;7.90;;
78426;SDS011;67722;50.204;8.570;2023-06-22T04:09:48;11.07;;;7.87;;
78426;SDS011;67722;50.204;8.570;2023-06-22T04:12:14;9.23;;;6.93;;
78426;SDS011;67722;50.204;8.570;2023-06-22T04:14:39;10.73;;;7.80;;
78426;SDS011;67722;50.204;8.570;2023-06-22T04:17:04;11.00;;;7.63;;
78426;SDS011;67722;50.204;8.570;2023-06-22T04:19:30;9.82;;;7.50;;
78426;SDS011;67722;50.204;8.570;2023-06-22T04:21:55;9.90;;;7.65;;
78426;SDS011;67722;50.204;8.570;2023-06-22T04:24:20;11.67;;;8.30;;
78426;SDS011;67722;50.204;8.570;2023-06-22T04:26:46;10.87;;;7.30;;
78426;SDS011;67722;50.204;8.570;2023-06-22T04:29:12;9.45;;;7.10;;
78426;SDS011;67722;50.204;8.570;2023-06-22T04:31:37;10.43;;;7.32;;
78426;SDS011;67722;50.204;8.570;2023-06-22T04:34:06;9.27;;;7.25;;
78426;SDS011;67722;50.204;8.570;2023-06-22T04:36:35;9.65;;;8.18;;
78426;SDS011;67722;50.204;8.570;2023-06-22T04:39:03;9.38;;;7.28;;
78426;SDS011;67722;50.204;8.570;2023-06-22T04:41:39;8.82;;;7.47;;
78426;SDS011;67722;50.204;8.570;2023-06-22T04:44:11;11.38;;;7.25;;
78426;SDS011;67722;50.204;8.570;2023-06-22T04:46:56;9.98;;;7.50;;
78426;SDS011;67722;50.204;8.570;2023-06-22T04:49:25;9.82;;;7.85;;
78426;SDS011;67722;50.204;8.570;2023-06-22T04:51:57;9.38;;;7.47;;
78426;SDS011;67722;50.204;8.570;2023-06-22T04:54:23;12.13;;;8.07;;
78426;SDS011;67722;50.204;8.570;2023-06-22T04:56:48;9.70;;;7.33;;
78426;SDS011;67722;50.204;8.570;2023-06-22T04:59:28;10.00;;;6.97;;
78426;SDS011;67722;50.204;8.570;2023-06-22T05:01:55;9.00;;;7.00;;
78426;SDS011;67722;50.204;8.570;2023-06-22T05:04:21;10.60;;;7.38;;
78426;SDS011;67722;50.204;8.570;2023-06-22T05:06:48;8.77;;;6.70;;
78426;SDS011;67722;50.204;8.570;2023-06-22T05:09:13;9.90;;;7.47;;
78426;SDS011;67722;50.204;8.570;2023-06-22T05:11:39;9.48;;;6.70;;
78426;SDS011;67722;50.204;8.570;2023-06-22T05:14:04;8.33;;;7.00;;
78426;SDS011;67722;50.204;8.570;2023-06-22T05:16:29;10.23;;;6.77;;
78426;SDS011;67722;50.204;8.570;2023-06-22T05:18:55;8.93;;;6.85;;
78426;SDS011;67722;50.204;8.570;2023-06-22T05:21:21;8.90;;;7.10;;
78426;SDS011;67722;50.204;8.570;2023-06-22T05:23:51;8.20;;;6.30;;
78426;SDS011;67722;50.204;8.570;2023-06-22T05:26:16;9.98;;;7.63;;
78426;SDS011;67722;50.204;8.570;2023-06-22T05:28:42;9.98;;;7.80;;
78426;SDS011;67722;50.204;8.570;2023-06-22T05:31:10;8.80;;;7.00;;
78426;SDS011;67722;50.204;8.570;2023-06-22T05:33:37;9.98;;;8.45;;
78426;SDS011;67722;50.204;8.570;2023-06-22T05:36:02;9.30;;;6.70;;
78426;SDS011;67722;50.204;8.570;2023-06-22T05:38:27;8.38;;;6.65;;
78426;SDS011;67722;50.204;8.570;2023-06-22T05:40:52;8.40;;;6.40;;
78426;SDS011;67722;50.204;8.570;2023-06-22T05:43:18;9.10;;;6.82;;
78426;SDS011;67722;50.204;8.570;2023-06-22T05:45:43;8.40;;;6.47;;
78426;SDS011;67722;50.204;8.570;2023-06-22T05:48:08;8.88;;;7.95;;
78426;SDS011;67722;50.204;8.570;2023-06-22T05:50:34;10.97;;;6.77;;
78426;SDS011;67722;50.204;8.570;2023-06-22T05:52:59;9.07;;;6.80;;
78426;SDS011;67722;50.204;8.570;2023-06-22T05:55:24;9.40;;;6.83;;
78426;SDS011;67722;50.204;8.570;2023-06-22T05:57:50;9.67;;;8.23;;
78426;SDS011;67722;50.204;8.570;2023-06-22T06:00:15;7.40;;;5.77;;
78426;SDS011;67722;50.204;8.570;2023-06-22T06:02:41;7.82;;;5.90;;
78426;SDS011;67722;50.204;8.570;2023-06-22T06:05:09;9.18;;;6.05;;
78426;SDS011;67722;50.204;8.570;2023-06-22T06:07:36;11.43;;;6.53;;
78426;SDS011;67722;50.204;8.570;2023-06-22T06:10:02;7.43;;;5.70;;
78426;SDS011;67722;50.204;8.570;2023-06-22T06:12:29;7.88;;;6.10;;
78426;SDS011;67722;50.204;8.570;2023-06-22T06:14:54;8.88;;;6.28;;
78426;SDS011;67722;50.204;8.570;2023-06-22T06:17:21;7.78;;;5.65;;
78426;SDS011;67722;50.204;8.570;2023-06-22T06:19:46;7.32;;;5.47;;
78426;SDS011;67722;50.204;8.570;2023-06-22T06:22:12;7.97;;;5.53;;
78426;SDS011;67722;50.204;8.570;2023-06-22T06:24:37;7.53;;;5.93;;
78426;SDS011;67722;50.204;8.570;2023-06-22T06:27:02;6.13;;;5.53;;
78426;SDS011;67722;50.204;8.570;2023-06-22T06:29:29;7.18;;;6.47;;
78426;SDS011;67722;50.204;8.570;2023-06-22T06:31:55;7.65;;;6.25;;
78426;SDS011;67722;50.204;8.570;2023-06-22T06:34:20;6.93;;;5.80;;
78426;SDS011;67722;50.204;8.570;2023-06-22T06:36:45;7.57;;;5.60;;
78426;SDS011;67722;50.204;8.570;2023-06-22T06:39:11;8.27;;;6.25;;
78426;SDS011;67722;50.204;8.570;2023-06-22T06:41:36;10.27;;;6.25;;
78426;SDS011;67722;50.204;8.570;2023-06-22T06:44:02;6.25;;;5.60;;
78426;SDS011;67722;50.204;8.570;2023-06-22T06:46:27;10.18;;;6.25;;
78426;SDS011;67722;50.204;8.570;2023-06-22T06:48:53;7.40;;;5.73;;
78426;SDS011;67722;50.204;8.570;2023-06-22T06:51:18;8.13;;;6.05;;
78426;SDS011;67722;50.204;8.570;2023-06-22T06:53:44;7.82;;;5.95;;
78426;SDS011;67722;50.204;8.570;2023-06-22T06:56:09;6.65;;;5.72;;
78426;SDS011;67722;50.204;8.570;2023-06-22T06:58:35;6.60;;;5.22;;
78426;SDS011;67722;50.204;8.570;2023-06-22T07:01:01;6.82;;;5.97;;
78426;SDS011;67722;50.204;8.570;2023-06-22T07:03:27;7.30;;;5.88;;
78426;SDS011;67722;50.204;8.570;2023-06-22T07:05:53;8.15;;;5.68;;
78426;SDS011;67722;50.204;8.570;2023-06-22T07:08:18;7.37;;;5.80;;
78426;SDS011;67722;50.204;8.570;2023-06-22T07:10:43;5.83;;;5.23;;
78426;SDS011;67722;50.204;8.570;2023-06-22T07:13:09;6.97;;;5.83;;
78426;SDS011;67722;50.204;8.570;2023-06-22T07:15:34;7.83;;;6.17;;
78426;SDS011;67722;50.204;8.570;2023-06-22T07:17:59;7.90;;;6.07;;
78426;SDS011;67722;50.204;8.570;2023-06-22T07:20:24;6.82;;;5.65;;
78426;SDS011;67722;50.204;8.570;2023-06-22T07:22:50;7.17;;;5.67;;
78426;SDS011;67722;50.204;8.570;2023-06-22T07:25:16;7.53;;;6.00;;
78426;SDS011;67722;50.204;8.570;2023-06-22T07:27:58;6.13;;;5.38;;
78426;SDS011;67722;50.204;8.570;2023-06-22T07:30:27;6.82;;;6.13;;
78426;SDS011;67722;50.204;8.570;2023-06-22T07:32:52;13.10;;;5.80;;
78426;SDS011;67722;50.204;8.570;2023-06-22T07:35:18;7.22;;;6.07;;
78426;SDS011;67722;50.204;8.570;2023-06-22T07:37:43;6.70;;;6.00;;
78426;SDS011;67722;50.204;8.570;2023-06-22T07:40:09;7.45;;;5.97;;
78426;SDS011;67722;50.204;8.570;2023-06-22T07:42:34;6.43;;;5.78;;
78426;SDS011;67722;50.204;8.570;2023-06-22T07:45:00;7.63;;;6.32;;
78426;SDS011;67722;50.204;8.570;2023-06-22T07:47:27;6.65;;;5.97;;
78426;SDS011;67722;50.204;8.570;2023-06-22T07:49:53;9.23;;;6.28;;
78426;SDS011;67722;50.204;8.570;2023-06-22T07:52:19;7.38;;;6.05;;
78426;SDS011;67722;50.204;8.570;2023-06-22T07:54:45;8.07;;;6.80;;
78426;SDS011;67722;50.204;8.570;2023-06-22T07:57:11;6.20;;;5.57;;
78426;SDS011;67722;50.204;8.570;2023-06-22T07:59:36;6.40;;;5.75;;
78426;SDS011;67722;50.204;8.570;2023-06-22T08:02:02;8.40;;;6.10;;
78426;SDS011;67722;50.204;8.570;2023-06-22T08:04:28;7.05;;;6.35;;
78426;SDS011;67722;50.204;8.570;2023-06-22T08:06:55;10.05;;;6.85;;
78426;SDS011;67722;50.204;8.570;2023-06-22T08:09:21;6.65;;;5.95;;
78426;SDS011;67722;50.204;8.570;2023-06-22T08:11:46;7.03;;;5.90;;
78426;SDS011;67722;50.204;8.570;2023-06-22T08:14:12;7.40;;;6.63;;
78426;SDS011;67722;50.204;8.570;2023-06-22T08:16:38;7.85;;;6.50;;
78426;SDS011;67722;50.204;8.570;2023-06-22T08:19:03;8.20;;;6.40;;
78426;SDS011;67722;50.204;8.570;2023-06-22T08:21:28;7.17;;;6.00;;
78426;SDS011;67722;50.204;8.570;2023-06-22T08:23:54;8.00;;;5.90;;
78426;SDS011;67722;50.204;8.570;2023-06-22T08:26:19;8.13;;;6.07;;
78426;SDS011;67722;50.204;8.570;2023-06-22T08:28:45;7.25;;;6.55;;
78426;SDS011;67722;50.204;8.570;2023-06-22T08:31:10;6.53;;;5.83;;
78426;SDS011;67722;50.204;8.570;2023-06-22T08:33:37;7.28;;;6.45;;
78426;SDS011;67722;50.204;8.570;2023-06-22T08:36:02;9.02;;;6.60;;
78426;SDS011;67722;50.204;8.570;2023-06-22T08:38:31;7.75;;;6.60;;
78426;SDS011;67722;50.204;8.570;2023-06-22T08:40:56;6.70;;;6.00;;
78426;SDS011;67722;50.204;8.570;2023-06-22T08:43:21;7.80;;;6.88;;
78426;SDS011;67722;50.204;8.570;2023-06-22T08:45:47;7.55;;;6.60;;
78426;SDS011;67722;50.204;8.570;2023-06-22T08:48:12;6.83;;;6.23;;
78426;SDS011;67722;50.204;8.570;2023-06-22T08:50:37;6.75;;;5.95;;
78426;SDS011;67722;50.204;8.570;2023-06-22T08:53:05;7.25;;;6.13;;
78426;SDS011;67722;50.204;8.570;2023-06-22T08:55:31;7.43;;;6.68;;
78426;SDS011;67722;50.204;8.570;2023-06-22T08:57:56;7.30;;;6.68;;
78426;SDS011;67722;50.204;8.570;2023-06-22T09:00:21;7.73;;;6.87;;
78426;SDS011;67722;50.204;8.570;2023-06-22T09:02:47;7.00;;;6.35;;
78426;SDS011;67722;50.204;8.570;2023-06-22T09:05:12;7.63;;;6.85;;
78426;SDS011;67722;50.204;8.570;2023-06-22T09:07:38;8.27;;;6.57;;
78426;SDS011;67722;50.204;8.570;2023-06-22T09:10:04;7.45;;;6.75;;
78426;SDS011;67722;50.204;8.570;2023-06-22T09:12:30;7.82;;;6.78;;
78426;SDS011;67722;50.204;8.570;2023-06-22T09:14:55;7.68;;;6.95;;
78426;SDS011;67722;50.204;8.570;2023-06-22T09:17:21;6.80;;;6.20;;
78426;SDS011;67722;50.204;8.570;2023-06-22T09:19:47;8.05;;;6.05;;
78426;SDS011;67722;50.204;8.570;2023-06-22T09:22:13;6.63;;;6.03;;
78426;SDS011;67722;50.204;8.570;2023-06-22T09:24:39;7.32;;;5.88;;
78426;SDS011;67722;50.204;8.570;2023-06-22T09:27:04;7.55;;;6.85;;
78426;SDS011;67722;50.204;8.570;2023-06-22T09:29:30;6.57;;;5.97;;
78426;SDS011;67722;50.204;8.570;2023-06-22T09:31:58;8.65;;;7.85;;
78426;SDS011;67722;50.204;8.570;2023-06-22T09:34:23;8.37;;;6.83;;
78426;SDS011;67722;50.204;8.570;2023-06-22T09:36:49;7.87;;;7.00;;
78426;SDS011;67722;50.204;8.570;2023-06-22T09:39:14;9.67;;;6.73;;
78426;SDS011;67722;50.204;8.570;2023-06-22T09:41:39;10.10;;;6.85;;
78426;SDS011;67722;50.204;8.570;2023-06-22T09:44:05;7.53;;;6.45;;
78426;SDS011;67722;50.204;8.570;2023-06-22T09:46:30;8.43;;;6.87;;
78426;SDS011;67722;50.204;8.570;2023-06-22T09:48:55;7.03;;;6.43;;
78426;SDS011;67722;50.204;8.570;2023-06-22T09:51:21;9.07;;;6.97;;
78426;SDS011;67722;50.204;8.570;2023-06-22T09:53:48;8.48;;;6.82;;
78426;SDS011;67722;50.204;8.570;2023-06-22T09:56:14;8.18;;;7.32;;
78426;SDS011;67722;50.204;8.570;2023-06-22T09:58:43;7.65;;;6.85;;
78426;SDS011;67722;50.204;8.570;2023-06-22T10:01:11;7.57;;;6.88;;
78426;SDS011;67722;50.204;8.570;2023-06-22T10:03:36;11.93;;;7.03;;
78426;SDS011;67722;50.204;8.570;2023-06-22T10:06:02;8.57;;;7.78;;
78426;SDS011;67722;50.204;8.570;2023-06-22T10:08:28;8.18;;;7.32;;
78426;SDS011;67722;50.204;8.570;2023-06-22T10:10:53;7.67;;;6.83;;
78426;SDS011;67722;50.204;8.570;2023-06-22T10:13:18;8.48;;;7.68;;
78426;SDS011;67722;50.204;8.570;2023-06-22T10:15:44;7.63;;;6.82;;
78426;SDS011;67722;50.204;8.570;2023-06-22T10:18:17;7.07;;;6.38;;
78426;SDS011;67722;50.204;8.570;2023-06-22T10:20:44;8.75;;;6.97;;
78426;SDS011;67722;50.204;8.570;2023-06-22T10:23:12;8.15;;;6.57;;
78426;SDS011;67722;50.204;8.570;2023-06-22T10:25:37;7.67;;;6.50;;
78426;SDS011;67722;50.204;8.570;2023-06-22T10:28:02;7.77;;;6.37;;
78426;SDS011;67722;50.204;8.570;2023-06-22T10:30:28;7.45;;;6.50;;
78426;SDS011;67722;50.204;8.570;2023-06-22T10:32:54;7.88;;;6.60;;
78426;SDS011;67722;50.204;8.570;2023-06-22T10:35:19;8.35;;;6.43;;
78426;SDS011;67722;50.204;8.570;2023-06-22T10:37:45;8.88;;;7.10;;
78426;SDS011;67722;50.204;8.570;2023-06-22T10:40:12;7.28;;;6.60;;
78426;SDS011;67722;50.204;8.570;2023-06-22T10:42:38;8.32;;;7.22;;
78426;SDS011;67722;50.204;8.570;2023-06-22T10:45:03;7.65;;;6.85;;
78426;SDS011;67722;50.204;8.570;2023-06-22T10:47:29;7.60;;;6.88;;
78426;SDS011;67722;50.204;8.570;2023-06-22T10:49:54;6.47;;;5.88;;
78426;SDS011;67722;50.204;8.570;2023-06-22T10:52:20;7.05;;;6.35;;
78426;SDS011;67722;50.204;8.570;2023-06-22T10:54:45;7.87;;;6.37;;
78426;SDS011;67722;50.204;8.570;2023-06-22T10:57:10;7.00;;;5.97;;
78426;SDS011;67722;50.204;8.570;2023-06-22T10:59:36;7.43;;;6.00;;
78426;SDS011;67722;50.204;8.570;2023-06-22T11:02:01;7.00;;;6.00;;
78426;SDS011;67722;50.204;8.570;2023-06-22T11:04:27;8.40;;;7.60;;
78426;SDS011;67722;50.204;8.570;2023-06-22T11:06:52;6.37;;;5.43;;
78426;SDS011;67722;50.204;8.570;2023-06-22T11:09:17;5.90;;;5.25;;
78426;SDS011;67722;50.204;8.570;2023-06-22T11:11:45;5.47;;;4.85;;
78426;SDS011;67722;50.204;8.570;2023-06-22T11:14:14;6.85;;;6.25;;
78426;SDS011;67722;50.204;8.570;2023-06-22T11:16:39;5.82;;;4.93;;
78426;SDS011;67722;50.204;8.570;2023-06-22T11:19:05;6.15;;;4.68;;
78426;SDS011;67722;50.204;8.570;2023-06-22T11:21:30;7.07;;;4.50;;
78426;SDS011;67722;50.204;8.570;2023-06-22T11:23:56;5.63;;;4.70;;
78426;SDS011;67722;50.204;8.570;2023-06-22T11:26:22;8.23;;;5.07;;
78426;SDS011;67722;50.204;8.570;2023-06-22T11:28:47;7.22;;;5.05;;
78426;SDS011;67722;50.204;8.570;2023-06-22T11:31:13;5.47;;;4.97;;
78426;SDS011;67722;50.204;8.570;2023-06-22T11:33:38;6.60;;;5.07;;
78426;SDS011;67722;50.204;8.570;2023-06-22T11:36:04;6.85;;;5.05;;
78426;SDS011;67722;50.204;8.570;2023-06-22T11:38:30;5.85;;;5.22;;
78426;SDS011;67722;50.204;8.570;2023-06-22T11:40:55;7.63;;;5.15;;
78426;SDS011;67722;50.204;8.570;2023-06-22T11:43:22;7.03;;;5.20;;
78426;SDS011;67722;50.204;8.570;2023-06-22T11:45:47;6.27;;;5.30;;
78426;SDS011;67722;50.204;8.570;2023-06-22T11:48:13;6.30;;;5.38;;
78426;SDS011;67722;50.204;8.570;2023-06-22T11:50:38;6.40;;;5.30;;
78426;SDS011;67722;50.204;8.570;2023-06-22T11:53:04;9.57;;;6.40;;
78426;SDS011;67722;50.204;8.570;2023-06-22T11:55:29;6.37;;;5.60;;
78426;SDS011;67722;50.204;8.570;2023-06-22T11:57:55;7.25;;;5.03;;
78426;SDS011;67722;50.204;8.570;2023-06-22T12:00:24;7.07;;;4.80;;
78426;SDS011;67722;50.204;8.570;2023-06-22T12:02:50;5.90;;;5.30;;
78426;SDS011;67722;50.204;8.570;2023-06-22T12:05:21;8.40;;;5.00;;
78426;SDS011;67722;50.204;8.570;2023-06-22T12:07:47;8.32;;;5.15;;
78426;SDS011;67722;50.204;8.570;2023-06-22T12:10:13;8.65;;;5.65;;
78426;SDS011;67722;50.204;8.570;2023-06-22T12:12:39;9.45;;;5.55;;
78426;SDS011;67722;50.204;8.570;2023-06-22T12:15:04;7.30;;;5.30;;
78426;SDS011;67722;50.204;8.570;2023-06-22T12:17:30;8.38;;;6.28;;
78426;SDS011;67722;50.204;8.570;2023-06-22T12:19:56;9.80;;;6.72;;
78426;SDS011;67722;50.204;8.570;2023-06-22T12:22:21;6.43;;;5.83;;
78426;SDS011;67722;50.204;8.570;2023-06-22T12:24:46;8.67;;;5.37;;
78426;SDS011;67722;50.204;8.570;2023-06-22T12:27:12;10.63;;;6.07;;
78426;SDS011;67722;50.204;8.570;2023-06-22T12:29:37;8.90;;;5.95;;
78426;SDS011;67722;50.204;8.570;2023-06-22T12:32:03;9.90;;;6.33;;
78426;SDS011;67722;50.204;8.570;2023-06-22T12:34:28;8.98;;;5.43;;
78426;SDS011;67722;50.204;8.570;2023-06-22T12:36:54;8.88;;;5.80;;
78426;SDS011;67722;50.204;8.570;2023-06-22T12:39:19;10.25;;;5.72;;
78426;SDS011;67722;50.204;8.570;2023-06-22T12:41:45;7.03;;;5.82;;
78426;SDS011;67722;50.204;8.570;2023-06-22T12:44:10;7.10;;;6.28;;
78426;SDS011;67722;50.204;8.570;2023-06-22T12:46:36;8.23;;;6.07;;
78426;SDS011;67722;50.204;8.570;2023-06-22T12:49:03;9.32;;;6.30;;
78426;SDS011;67722;50.204;8.570;2023-06-22T12:51:29;7.70;;;6.43;;
78426;SDS011;67722;50.204;8.570;2023-06-22T12:53:54;7.72;;;5.68;;
78426;SDS011;67722;50.204;8.570;2023-06-22T12:56:20;12.10;;;6.47;;
78426;SDS011;67722;50.204;8.570;2023-06-22T12:58:45;8.27;;;6.10;;
78426;SDS011;67722;50.204;8.570;2023-06-22T13:01:10;8.93;;;6.30;;
78426;SDS011;67722;50.204;8.570;2023-06-22T13:03:36;9.00;;;6.20;;
78426;SDS011;67722;50.204;8.570;2023-06-22T13:06:01;10.23;;;6.50;;
78426;SDS011;67722;50.204;8.570;2023-06-22T13:08:28;8.07;;;6.20;;
78426;SDS011;67722;50.204;8.570;2023-06-22T13:10:54;10.32;;;5.72;;
78426;SDS011;67722;50.204;8.570;2023-06-22T13:13:21;7.80;;;5.57;;
78426;SDS011;67722;50.204;8.570;2023-06-22T13:15:49;9.95;;;6.00;;
78426;SDS011;67722;50.204;8.570;2023-06-22T13:18:15;9.27;;;5.13;;
78426;SDS011;67722;50.204;8.570;2023-06-22T13:20:41;6.45;;;4.80;;
78426;SDS011;67722;50.204;8.570;2023-06-22T13:23:06;9.35;;;5.45;;
78426;SDS011;67722;50.204;8.570;2023-06-22T13:25:32;11.90;;;5.60;;
78426;SDS011;67722;50.204;8.570;2023-06-22T13:27:57;7.32;;;4.60;;
78426;SDS011;67722;50.204;8.570;2023-06-22T13:30:22;8.68;;;5.85;;
78426;SDS011;67722;50.204;8.570;2023-06-22T13:32:48;9.50;;;6.30;;
78426;SDS011;67722;50.204;8.570;2023-06-22T13:35:13;8.52;;;6.18;;
78426;SDS011;67722;50.204;8.570;2023-06-22T13:37:39;7.65;;;6.90;;
78426;SDS011;67722;50.204;8.570;2023-06-22T13:40:07;9.75;;;5.50;;
78426;SDS011;67722;50.204;8.570;2023-06-22T13:42:33;10.63;;;5.75;;
78426;SDS011;67722;50.204;8.570;2023-06-22T13:44:58;11.57;;;5.50;;
78426;SDS011;67722;50.204;8.570;2023-06-22T13:47:24;12.60;;;6.70;;
78426;SDS011;67722;50.204;8.570;2023-06-22T13:49:49;8.57;;;6.32;;
78426;SDS011;67722;50.204;8.570;2023-06-22T13:52:14;8.43;;;5.55;;
78426;SDS011;67722;50.204;8.570;2023-06-22T13:54:40;7.97;;;6.18;;
78426;SDS011;67722;50.204;8.570;2023-06-22T13:57:05;8.77;;;5.97;;
78426;SDS011;67722;50.204;8.570;2023-06-22T13:59:31;10.68;;;5.97;;
78426;SDS011;67722;50.204;8.570;2023-06-22T14:01:56;10.40;;;6.60;;
78426;SDS011;67722;50.204;8.570;2023-06-22T14:04:25;10.17;;;6.50;;
78426;SDS011;67722;50.204;8.570;2023-06-22T14:06:50;9.77;;;6.30;;
78426;SDS011;67722;50.204;8.570;2023-06-22T14:09:15;9.02;;;6.10;;
78426;SDS011;67722;50.204;8.570;2023-06-22T14:11:41;11.00;;;6.82;;
78426;SDS011;67722;50.204;8.570;2023-06-22T14:14:06;12.35;;;6.80;;
78426;SDS011;67722;50.204;8.570;2023-06-22T14:16:31;8.43;;;6.33;;
78426;SDS011;67722;50.204;8.570;2023-06-22T14:18:57;11.67;;;6.30;;
78426;SDS011;67722;50.204;8.570;2023-06-22T14:21:22;9.37;;;6.27;;
78426;SDS011;67722;50.204;8.570;2023-06-22T14:23:47;11.33;;;6.30;;
78426;SDS011;67722;50.204;8.570;2023-06-22T14:26:14;7.40;;;5.50;;
78426;SDS011;67722;50.204;8.570;2023-06-22T14:28:42;11.13;;;6.18;;
78426;SDS011;67722;50.204;8.570;2023-06-22T14:31:12;11.45;;;6.35;;
78426;SDS011;67722;50.204;8.570;2023-06-22T14:33:37;10.68;;;6.35;;
78426;SDS011;67722;50.204;8.570;2023-06-22T14:36:03;9.33;;;6.23;;
78426;SDS011;67722;50.204;8.570;2023-06-22T14:38:28;10.18;;;6.03;;
78426;SDS011;67722;50.204;8.570;2023-06-22T14:40:53;10.47;;;6.00;;
78426;SDS011;67722;50.204;8.570;2023-06-22T14:43:19;9.73;;;6.32;;
78426;SDS011;67722;50.204;8.570;2023-06-22T14:45:44;6.30;;;5.23;;
78426;SDS011;67722;50.204;8.570;2023-06-22T14:48:09;6.90;;;5.30;;